createdAt,value
2022-08-30T00:01:04.341Z,100629.31
2022-08-30T00:03:48.806Z,100632.19
2022-08-30T00:06:22.296Z,100636.06
2022-08-30T00:08:52.710Z,100631.78
2022-08-30T00:11:29.458Z,100633.38
2022-08-30T00:13:59.511Z,100636.25
2022-08-30T00:16:29.532Z,100638.44
2022-08-30T00:18:59.548Z,100638.44
2022-08-30T00:21:29.623Z,100635.50
2022-08-30T00:23:59.534Z,100631.94
2022-08-30T00:26:29.683Z,100625.75
2022-08-30T00:29:00.194Z,100626.31
2022-08-30T00:31:30.373Z,100635.94
2022-08-30T00:34:00.447Z,100631.34
2022-08-30T00:36:30.921Z,100621.38
2022-08-30T00:39:01.123Z,100632.91
2022-08-30T00:41:31.123Z,100640.09
2022-08-30T00:44:01.061Z,100640.06
2022-08-30T00:46:31.314Z,100633.59
2022-08-30T00:49:06.002Z,100632.25
2022-08-30T00:51:36.783Z,100628.09
2022-08-30T00:54:07.487Z,100628.06
2022-08-30T00:56:38.285Z,100623.66
2022-08-30T00:59:10.770Z,100617.97
2022-08-30T01:01:41.138Z,100621.66
2022-08-30T01:04:16.149Z,100617.84
2022-08-30T01:06:46.372Z,100622.72
2022-08-30T01:09:16.824Z,100615.56
2022-08-30T01:11:48.497Z,100616.69
2022-08-30T01:14:19.619Z,100619.88
2022-08-30T01:16:50.889Z,100625.53
2022-08-30T01:19:49.433Z,100617.97
2022-08-30T01:22:31.693Z,100612.28
2022-08-30T01:25:04.242Z,100614.06
2022-08-30T01:27:44.431Z,100604.03
2022-08-30T01:30:16.043Z,100614.66
2022-08-30T01:32:49.477Z,100609.19
2022-08-30T01:35:21.919Z,100612.41
2022-08-30T01:37:52.968Z,100613.34
2022-08-30T01:40:23.596Z,100620.88
2022-08-30T01:42:53.726Z,100617.00
2022-08-30T01:45:24.035Z,100619.38
2022-08-30T01:47:54.233Z,100618.69
2022-08-30T01:50:24.377Z,100621.25
2022-08-30T01:52:54.335Z,100621.38
2022-08-30T01:55:24.513Z,100622.06
2022-08-30T01:57:54.614Z,100619.97
2022-08-30T02:00:24.718Z,100621.38
2022-08-30T02:02:56.522Z,100609.06
2022-08-30T02:05:27.706Z,100609.00
2022-08-30T02:07:58.024Z,100611.78
2022-08-30T02:10:28.874Z,100609.44
2022-08-30T02:12:58.886Z,100601.13
2022-08-30T02:15:29.018Z,100600.22
2022-08-30T02:17:59.416Z,100593.50
2022-08-30T02:20:31.470Z,100593.38
2022-08-30T02:23:01.650Z,100591.63
2022-08-30T02:25:31.634Z,100593.94
2022-08-30T02:28:00.936Z,100591.69
2022-08-30T02:30:31.372Z,100589.09
2022-08-30T02:33:01.697Z,100577.34
2022-08-30T02:35:31.764Z,100582.59
2022-08-30T02:38:01.917Z,100575.19
2022-08-30T02:40:32.304Z,100571.44
2022-08-30T02:43:02.328Z,100570.72
2022-08-30T02:45:32.435Z,100560.03
2022-08-30T02:48:02.438Z,100558.47
2022-08-30T02:50:32.690Z,100554.25
2022-08-30T02:53:02.691Z,100550.81
2022-08-30T02:55:32.761Z,100557.94
2022-08-30T02:58:02.760Z,100553.22
2022-08-30T03:00:33.412Z,100543.31
2022-08-30T03:03:05.402Z,100538.00
2022-08-30T03:05:39.633Z,100537.28
2022-08-30T03:08:09.991Z,100535.72
2022-08-30T03:10:40.561Z,100530.06
2022-08-30T03:13:10.578Z,100533.91
2022-08-30T03:15:41.837Z,100528.03
2022-08-30T03:18:12.430Z,100517.31
2022-08-30T03:20:46.119Z,100512.47
2022-08-30T03:23:25.381Z,100509.06
2022-08-30T03:25:55.964Z,100514.78
2022-08-30T03:28:26.726Z,100511.59
2022-08-30T03:30:57.234Z,100513.78
2022-08-30T03:33:27.197Z,100510.34
2022-08-30T03:35:58.134Z,100497.97
2022-08-30T03:38:28.462Z,100496.41
2022-08-30T03:40:58.474Z,100490.25
2022-08-30T03:43:28.448Z,100485.72
2022-08-30T03:45:59.974Z,100476.88
2022-08-30T03:48:31.344Z,100480.47
2022-08-30T03:51:02.122Z,100479.72
2022-08-30T03:53:36.291Z,100479.22
2022-08-30T03:56:06.509Z,100475.19
2022-08-30T03:58:36.583Z,100471.19
2022-08-30T04:01:06.661Z,100479.34
2022-08-30T04:03:37.286Z,100471.78
2022-08-30T04:06:07.049Z,100469.41
2022-08-30T04:08:37.069Z,100471.00
2022-08-30T04:11:08.495Z,100470.78
2022-08-30T04:13:39.605Z,100467.03
2022-08-30T04:16:09.946Z,100462.19
2022-08-30T04:18:40.758Z,100466.53
2022-08-30T04:21:13.983Z,100460.84
2022-08-30T04:23:45.200Z,100448.72
2022-08-30T04:26:15.924Z,100448.47
2022-08-30T04:28:46.408Z,100433.06
2022-08-30T04:31:20.281Z,100439.03
2022-08-30T04:33:51.087Z,100421.19
2022-08-30T04:36:22.350Z,100425.25
2022-08-30T04:38:52.724Z,100426.66
2022-08-30T04:41:25.548Z,100423.94
2022-08-30T04:43:55.982Z,100418.53
2022-08-30T04:46:26.466Z,100416.16
2022-08-30T04:48:56.656Z,100416.44
2022-08-30T04:51:26.780Z,100417.81
2022-08-30T04:53:56.768Z,100405.94
2022-08-30T04:56:26.630Z,100409.75
2022-08-30T04:58:58.399Z,100400.56
2022-08-30T05:01:32.127Z,100394.88
2022-08-30T05:04:16.787Z,100383.56
2022-08-30T05:06:47.043Z,100378.16
2022-08-30T05:09:17.367Z,100387.38
2022-08-30T05:11:47.661Z,100380.09
2022-08-30T05:14:17.813Z,100382.84
2022-08-30T05:16:48.607Z,100385.56
2022-08-30T05:19:18.657Z,100376.38
2022-08-30T05:21:48.558Z,100378.56
2022-08-30T05:24:18.596Z,100377.25
2022-08-30T05:29:23.375Z,100373.75
2022-08-30T05:31:53.789Z,100373.22
2022-08-30T05:34:23.743Z,100362.72
2022-08-30T05:36:54.701Z,100363.28
2022-08-30T05:39:24.969Z,100358.97
2022-08-30T05:41:58.875Z,100358.19
2022-08-30T05:44:28.925Z,100336.81
2022-08-30T05:46:58.979Z,100338.72
2022-08-30T05:49:28.914Z,100329.00
2022-08-30T05:51:58.845Z,100327.38
2022-08-30T05:54:28.980Z,100333.63
2022-08-30T05:56:59.018Z,100319.59
2022-08-30T05:59:29.137Z,100316.31
2022-08-30T06:02:00.678Z,100314.75
2022-08-30T06:04:31.352Z,100314.47
2022-08-30T06:07:01.581Z,100305.81
2022-08-30T06:09:31.784Z,100306.09
2022-08-30T06:12:02.027Z,100295.53
2022-08-30T06:14:32.228Z,100294.75
2022-08-30T06:17:02.262Z,100294.78
2022-08-30T06:19:32.198Z,100286.13
2022-08-30T06:22:02.340Z,100275.28
2022-08-30T06:24:56.437Z,100279.13
2022-08-30T06:27:27.145Z,100271.03
2022-08-30T06:29:57.200Z,100268.59
2022-08-30T06:32:27.360Z,100282.94
2022-08-30T06:34:57.465Z,100276.44
2022-08-30T06:37:29.707Z,100269.94
2022-08-30T06:40:02.205Z,100270.22
2022-08-30T06:42:34.957Z,100259.66
2022-08-30T06:45:10.976Z,100252.38
2022-08-30T06:47:42.239Z,100246.38
2022-08-30T06:50:17.815Z,100242.06
2022-08-30T06:52:48.458Z,100244.22
2022-08-30T06:55:20.115Z,100245.31
2022-08-30T06:57:50.578Z,100249.38
2022-08-30T07:00:21.535Z,100249.09
2022-08-30T07:02:52.940Z,100249.09
2022-08-30T07:05:25.566Z,100243.41
2022-08-30T07:07:59.611Z,100242.88
2022-08-30T07:10:30.607Z,100242.56
2022-08-30T07:13:01.458Z,100235.00
2022-08-30T07:15:32.015Z,100230.94
2022-08-30T07:18:26.617Z,100237.44
2022-08-30T07:20:57.574Z,100239.09
2022-08-30T07:23:27.349Z,100228.50
2022-08-30T07:25:58.250Z,100229.56
2022-08-30T07:28:28.453Z,100223.63
2022-08-30T07:30:58.739Z,100222.81
2022-08-30T07:33:30.154Z,100216.53
2022-08-30T07:36:01.434Z,100226.03
2022-08-30T07:38:32.574Z,100216.78
2022-08-30T07:41:03.260Z,100218.16
2022-08-30T07:43:36.007Z,100226.03
2022-08-30T07:46:09.510Z,100223.56
2022-08-30T07:48:39.948Z,100222.19
2022-08-30T07:51:20.267Z,100223.56
2022-08-30T07:53:50.688Z,100218.38
2022-08-30T07:56:20.823Z,100215.66
2022-08-30T07:58:51.540Z,100219.94
2022-08-30T08:01:23.841Z,100214.81
2022-08-30T08:03:54.423Z,100216.69
2022-08-30T08:06:25.873Z,100225.38
2022-08-30T08:08:57.775Z,100216.69
2022-08-30T08:11:33.290Z,100224.25
2022-08-30T08:14:05.320Z,100222.91
2022-08-30T08:16:38.426Z,100220.44
2022-08-30T08:19:10.499Z,100215.53
2022-08-30T08:21:41.790Z,100218.50
2022-08-30T08:24:12.244Z,100226.09
2022-08-30T08:26:45.472Z,100211.44
2022-08-30T08:29:16.196Z,100214.38
2022-08-30T08:31:51.369Z,100222.47
2022-08-30T08:34:24.978Z,100230.59
2022-08-30T08:36:56.167Z,100226.22
2022-08-30T08:39:26.607Z,100220.19
2022-08-30T08:42:04.171Z,100218.81
2022-08-30T08:44:55.282Z,100215.63
2022-08-30T08:47:46.136Z,100223.81
2022-08-30T08:50:21.402Z,100221.69
2022-08-30T08:53:45.247Z,100219.59
2022-08-30T08:56:17.685Z,100216.09
2022-08-30T08:58:49.244Z,100213.44
2022-08-30T09:01:22.662Z,100212.63
2022-08-30T09:03:54.368Z,100220.25
2022-08-30T09:06:36.139Z,100208.06
2022-08-30T09:09:07.210Z,100204.03
2022-08-30T09:11:39.272Z,100188.06
2022-08-30T09:14:16.590Z,100185.91
2022-08-30T09:16:55.978Z,100189.16
2022-08-30T09:19:46.722Z,100177.78
2022-08-30T09:22:19.310Z,100162.06
2022-08-30T09:24:54.410Z,100142.59
2022-08-30T09:27:35.515Z,100156.94
2022-08-30T09:30:19.706Z,100161.03
2022-08-30T09:32:56.851Z,100177.56
2022-08-30T09:35:37.134Z,100198.72
2022-08-30T09:38:14.374Z,100211.44
2022-08-30T09:40:47.839Z,100223.34
2022-08-30T09:43:25.819Z,100243.94
2022-08-30T09:46:02.204Z,100265.06
2022-08-30T09:49:00.178Z,100278.56
2022-08-30T09:52:00.607Z,100287.75
2022-08-30T09:54:46.977Z,100299.38
2022-08-30T09:57:34.154Z,100295.53
2022-08-30T10:00:09.994Z,100296.34
2022-08-30T10:02:55.966Z,100292.81
2022-08-30T10:06:09.774Z,100291.97
2022-08-30T10:09:06.945Z,100294.91
2022-08-30T10:12:04.280Z,100294.63
2022-08-30T10:14:47.364Z,100293.78
2022-08-30T10:17:53.766Z,100288.06
2022-08-30T10:20:34.931Z,100288.03
2022-08-30T10:23:14.060Z,100291.75
2022-08-30T10:26:02.140Z,100286.84
2022-08-30T10:28:57.386Z,100297.63
2022-08-30T10:31:37.225Z,100309.78
2022-08-30T10:34:33.004Z,100319.75
2022-08-30T10:37:27.261Z,100341.84
2022-08-30T10:40:34.910Z,100366.34
2022-08-30T10:43:15.708Z,100401.91
2022-08-30T10:45:52.209Z,100418.50
2022-08-30T10:48:47.491Z,100442.38
2022-08-30T10:51:42.786Z,100461.09
2022-08-30T10:54:44.178Z,100516.81
2022-08-30T10:57:14.152Z,100516.56
2022-08-30T10:59:50.072Z,100502.59
2022-08-30T11:02:40.801Z,100474.34
2022-08-30T11:05:51.210Z,100470.88
2022-08-30T11:08:38.060Z,100472.56
2022-08-30T11:11:43.784Z,100485.19
2022-08-30T11:14:32.834Z,100475.31
2022-08-30T11:17:06.910Z,100470.34
2022-08-30T11:19:46.029Z,100457.25
2022-08-30T11:22:41.354Z,100474.88
2022-08-30T11:25:20.471Z,100487.69
2022-08-30T11:27:57.088Z,100475.53
2022-08-30T11:30:27.635Z,100475.75
2022-08-30T11:33:07.945Z,100471.78
2022-08-30T11:35:46.073Z,100455.91
2022-08-30T11:38:27.662Z,100443.53
2022-08-30T11:40:57.784Z,100441.66
2022-08-30T11:43:37.787Z,100447.25
2022-08-30T11:46:29.194Z,100445.00
2022-08-30T11:49:36.718Z,100437.78
2022-08-30T11:52:36.641Z,100450.38
2022-08-30T11:55:24.136Z,100471.06
2022-08-30T11:58:03.294Z,100478.31
2022-08-30T12:00:51.454Z,100496.88
2022-08-30T12:03:35.230Z,100497.69
2022-08-30T12:06:08.900Z,100503.28
2022-08-30T12:08:48.816Z,100487.19
2022-08-30T12:11:18.943Z,100483.91
2022-08-30T12:13:49.075Z,100480.84
2022-08-30T12:17:07.202Z,100489.72
2022-08-30T12:19:37.958Z,100487.13
2022-08-30T12:22:17.313Z,100486.53
2022-08-30T12:24:54.031Z,100493.25
2022-08-30T12:27:32.843Z,100481.47
2022-08-30T12:30:09.997Z,100469.47
2022-08-30T12:32:51.479Z,100481.25
2022-08-30T12:35:29.769Z,100477.75
2022-08-30T12:38:07.482Z,100487.44
2022-08-30T12:40:37.846Z,100484.97
2022-08-30T12:43:20.787Z,100489.91
2022-08-30T12:45:52.248Z,100492.81
2022-08-30T12:48:24.217Z,100494.19
2022-08-30T12:50:59.178Z,100493.81
2022-08-30T12:53:33.909Z,100476.84
2022-08-30T12:56:08.546Z,100464.63
2022-08-30T12:58:43.089Z,100474.75
2022-08-30T13:01:31.287Z,100471.69
2022-08-30T13:04:01.516Z,100458.97
2022-08-30T13:06:43.608Z,100451.94
2022-08-30T13:09:26.313Z,100432.88
2022-08-30T13:11:58.240Z,100426.97
2022-08-30T13:14:42.388Z,100421.25
2022-08-30T13:17:29.423Z,100420.28
2022-08-30T13:20:10.481Z,100408.59
2022-08-30T13:23:05.513Z,100407.97
2022-08-30T13:25:37.004Z,100409.75
2022-08-30T13:28:09.264Z,100403.91
2022-08-30T13:30:40.792Z,100394.91
2022-08-30T13:33:12.836Z,100399.09
2022-08-30T13:35:44.100Z,100395.28
2022-08-30T13:38:14.691Z,100404.44
2022-08-30T13:40:45.785Z,100406.91
2022-08-30T13:43:16.410Z,100408.53
2022-08-30T13:45:46.746Z,100410.34
2022-08-30T13:48:18.020Z,100408.84
2022-08-30T13:50:55.073Z,100404.44
2022-08-30T13:56:14.657Z,100401.72
2022-08-30T13:58:46.104Z,100398.38
2022-08-30T14:01:18.050Z,100407.81
2022-08-30T14:07:11.860Z,100410.44
2022-08-30T14:09:30.153Z,100411.88
2022-08-30T14:12:00.810Z,100400.50
2022-08-30T14:14:42.524Z,100398.31
2022-08-30T14:17:14.288Z,100404.34
2022-08-30T14:19:44.388Z,100407.47
2022-08-30T14:22:15.173Z,100424.84
2022-08-30T14:24:45.567Z,100431.66
2022-08-30T14:27:15.796Z,100432.09
2022-08-30T14:29:48.309Z,100423.47
2022-08-30T14:32:18.957Z,100422.25
2022-08-30T14:34:49.048Z,100418.38
2022-08-30T14:37:21.647Z,100415.13
2022-08-30T14:39:51.176Z,100415.56
2022-08-30T14:42:21.592Z,100420.75
2022-08-30T14:44:56.512Z,100424.72
2022-08-30T14:47:29.416Z,100437.13
2022-08-30T14:50:03.101Z,100441.72
2022-08-30T14:52:34.409Z,100443.66
2022-08-30T14:55:09.111Z,100444.09
2022-08-30T14:57:40.746Z,100447.00
2022-08-30T15:00:14.878Z,100444.78
2022-08-30T15:02:45.516Z,100449.28
2022-08-30T15:05:16.470Z,100455.91
2022-08-30T15:07:51.733Z,100448.09
2022-08-30T15:10:22.713Z,100446.84
2022-08-30T15:12:57.279Z,100449.16
2022-08-30T15:15:27.568Z,100463.41
2022-08-30T15:17:57.368Z,100470.25
2022-08-30T15:20:28.882Z,100485.50
2022-08-30T15:22:59.928Z,100478.94
2022-08-30T15:25:30.360Z,100483.91
2022-08-30T15:28:00.628Z,100479.84
2022-08-30T15:30:33.824Z,100470.41
2022-08-30T15:33:05.095Z,100485.25
2022-08-30T15:35:36.358Z,100492.09
2022-08-30T15:38:07.065Z,100490.88
2022-08-30T15:40:37.319Z,100484.28
2022-08-30T15:43:08.186Z,100489.06
2022-08-30T15:45:38.661Z,100478.16
2022-08-30T15:48:08.969Z,100480.63
2022-08-30T15:50:39.494Z,100478.34
2022-08-30T15:53:10.979Z,100491.72
2022-08-30T15:55:41.157Z,100489.66
2022-08-30T15:58:11.280Z,100490.47
2022-08-30T16:00:44.985Z,100490.91
2022-08-30T16:03:15.907Z,100491.34
2022-08-30T16:05:48.995Z,100490.31
2022-08-30T16:08:20.373Z,100489.06
2022-08-30T16:10:51.931Z,100492.34
2022-08-30T16:13:23.621Z,100487.78
2022-08-30T16:15:53.598Z,100477.31
2022-08-30T16:18:23.587Z,100484.28
2022-08-30T16:21:23.692Z,100482.22
2022-08-30T16:24:01.059Z,100481.81
2022-08-30T16:26:32.943Z,100476.53
2022-08-30T16:29:05.018Z,100478.56
2022-08-30T16:31:38.318Z,100471.59
2022-08-30T16:34:10.229Z,100465.63
2022-08-30T16:36:41.123Z,100472.00
2022-08-30T16:39:14.082Z,100470.81
2022-08-30T16:41:46.769Z,100475.31
2022-08-30T16:44:20.063Z,100478.25
2022-08-30T16:46:54.037Z,100469.56
2022-08-30T16:49:26.190Z,100474.94
2022-08-30T16:51:56.955Z,100475.13
2022-08-30T16:54:27.677Z,100469.38
2022-08-30T16:56:57.773Z,100463.22
2022-08-30T16:59:27.909Z,100455.59
2022-08-30T17:01:59.372Z,100462.41
2022-08-30T17:04:29.880Z,100452.72
2022-08-30T17:06:59.863Z,100452.72
2022-08-30T17:09:29.820Z,100456.25
2022-08-30T17:12:00.323Z,100457.88
2022-08-30T17:14:34.261Z,100457.88
2022-08-30T17:17:04.437Z,100454.59
2022-08-30T17:19:39.385Z,100450.88
2022-08-30T17:22:14.678Z,100453.31
2022-08-30T17:24:44.933Z,100450.66
2022-08-30T17:27:16.307Z,100450.25
2022-08-30T17:29:46.608Z,100449.84
2022-08-30T17:32:16.680Z,100451.69
2022-08-30T17:34:47.944Z,100448.81
2022-08-30T17:37:21.485Z,100447.56
2022-08-30T17:39:52.269Z,100445.47
2022-08-30T17:42:22.457Z,100446.09
2022-08-30T17:44:52.633Z,100442.16
2022-08-30T17:47:22.800Z,100442.78
2022-08-30T17:49:55.853Z,100439.88
2022-08-30T17:52:26.268Z,100446.25
2022-08-30T17:54:56.441Z,100438.69
2022-08-30T17:57:29.577Z,100439.53
2022-08-30T18:00:01.273Z,100442.22
2022-08-30T18:02:34.011Z,100442.88
2022-08-30T18:05:04.698Z,100435.28
2022-08-30T18:07:34.715Z,100442.69
2022-08-30T18:10:05.549Z,100433.66
2022-08-30T18:12:36.035Z,100441.06
2022-08-30T18:15:12.567Z,100435.09
2022-08-30T18:17:46.159Z,100446.00
2022-08-30T18:20:19.271Z,100438.44
2022-08-30T18:22:53.441Z,100440.06
2022-08-30T18:25:24.278Z,100440.47
2022-08-30T18:27:58.169Z,100433.50
2022-08-30T18:30:34.654Z,100433.09
2022-08-30T18:33:10.462Z,100434.31
2022-08-30T18:35:47.284Z,100436.00
2022-08-30T18:38:23.570Z,100434.31
2022-08-30T18:41:05.988Z,100433.72
2022-08-30T18:43:36.257Z,100436.19
2022-08-30T18:46:12.379Z,100446.28
2022-08-30T18:48:43.647Z,100439.09
2022-08-30T18:51:16.281Z,100436.44
2022-08-30T18:53:48.825Z,100434.38
2022-08-30T18:56:19.823Z,100438.50
2022-08-30T18:58:50.903Z,100424.75
2022-08-30T19:01:23.051Z,100429.91
2022-08-30T19:03:54.150Z,100428.03
2022-08-30T19:06:24.277Z,100426.41
2022-08-30T19:08:54.245Z,100425.34
2022-08-30T19:11:24.825Z,100431.97
2022-08-30T19:13:54.749Z,100433.19
2022-08-30T19:16:25.737Z,100435.25
2022-08-30T19:18:55.878Z,100430.94
2022-08-30T19:21:25.899Z,100427.44
2022-08-30T19:23:56.040Z,100433.63
2022-08-30T19:26:27.551Z,100431.56
2022-08-30T19:28:58.065Z,100428.88
2022-08-30T19:31:33.128Z,100434.22
2022-08-30T19:34:03.796Z,100424.97
2022-08-30T19:36:34.562Z,100430.31
2022-08-30T19:39:05.018Z,100426.00
2022-08-30T19:41:35.167Z,100429.28
2022-08-30T19:44:06.946Z,100423.34
2022-08-30T19:46:37.770Z,100424.97
2022-08-30T19:49:11.458Z,100427.03
2022-08-30T19:51:46.505Z,100428.69
2022-08-30T19:54:17.416Z,100429.50
2022-08-30T19:56:48.239Z,100425.41
2022-08-30T19:59:20.144Z,100430.75
2022-08-30T20:01:50.884Z,100424.56
2022-08-30T20:04:21.141Z,100424.75
2022-08-30T20:06:53.360Z,100432.16
2022-08-30T20:09:23.572Z,100428.69
2022-08-30T20:11:53.808Z,100430.53
2022-08-30T20:14:25.662Z,100427.25
2022-08-30T20:16:55.921Z,100424.78
2022-08-30T20:19:27.829Z,100434.03
2022-08-30T20:22:07.692Z,100432.59
2022-08-30T20:24:39.459Z,100441.84
2022-08-30T20:27:14.442Z,100440.63
2022-08-30T20:29:44.551Z,100441.84
2022-08-30T20:32:14.710Z,100440.22
2022-08-30T20:34:44.696Z,100438.56
2022-08-30T20:37:16.809Z,100444.09
2022-08-30T20:39:47.349Z,100449.47
2022-08-30T20:42:18.991Z,100442.47
2022-08-30T20:44:49.286Z,100445.34
2022-08-30T20:47:19.635Z,100443.69
2022-08-30T20:49:49.931Z,100441.44
2022-08-30T20:52:20.741Z,100436.31
2022-08-30T20:54:54.719Z,100441.47
2022-08-30T20:57:25.521Z,100436.31
2022-08-30T20:59:55.831Z,100440.63
2022-08-30T21:02:30.477Z,100447.00
2022-08-30T21:05:01.053Z,100449.69
2022-08-30T21:07:31.654Z,100448.00
2022-08-30T21:10:01.748Z,100448.84
2022-08-30T21:12:32.221Z,100448.84
2022-08-30T21:15:15.350Z,100443.72
2022-08-30T21:17:53.350Z,100442.06
2022-08-30T21:20:23.829Z,100448.66
2022-08-30T21:22:53.884Z,100443.31
2022-08-30T21:25:23.880Z,100448.00
2022-08-30T21:27:55.154Z,100445.75
2022-08-30T21:30:25.918Z,100454.59
2022-08-30T21:33:00.028Z,100459.50
2022-08-30T21:35:49.840Z,100458.88
2022-08-30T21:38:21.169Z,100468.72
2022-08-30T21:40:51.916Z,100459.91
2022-08-30T21:43:22.174Z,100466.06
2022-08-30T21:45:54.735Z,100476.75
2022-08-30T21:48:25.280Z,100473.44
2022-08-30T21:50:56.587Z,100479.22
2022-08-30T21:53:27.458Z,100483.91
2022-08-30T21:55:57.599Z,100482.28
2022-08-30T21:58:29.882Z,100487.03
2022-08-30T22:00:59.847Z,100483.31
2022-08-30T22:03:30.058Z,100483.09
2022-08-30T22:06:00.491Z,100483.53
2022-08-30T22:08:30.581Z,100488.28
2022-08-30T22:11:01.211Z,100495.03
2022-08-30T22:13:31.828Z,100493.59
2022-08-30T22:16:01.157Z,100499.75
2022-08-30T22:18:31.102Z,100498.94
2022-08-30T22:21:01.540Z,100506.78
2022-08-30T22:23:34.999Z,100503.69
2022-08-30T22:26:06.679Z,100499.81
2022-08-30T22:28:38.009Z,100512.97
2022-08-30T22:31:11.595Z,100516.69
2022-08-30T22:33:42.621Z,100518.13
2022-08-30T22:36:20.131Z,100519.16
2022-08-30T22:38:52.595Z,100516.06
2022-08-30T22:41:25.672Z,100520.63
2022-08-30T22:44:01.507Z,100526.16
2022-08-30T22:46:34.519Z,100525.34
2022-08-30T22:49:05.665Z,100531.69
2022-08-30T22:51:36.577Z,100531.72
2022-08-30T22:54:08.552Z,100535.00
2022-08-30T22:56:39.745Z,100528.00
2022-08-30T22:59:09.949Z,100533.53
2022-08-30T23:01:44.428Z,100528.19
2022-08-30T23:04:14.378Z,100534.34
2022-08-30T23:06:49.597Z,100526.56
2022-08-30T23:09:20.588Z,100526.75
2022-08-30T23:11:50.434Z,100533.72
2022-08-30T23:14:20.471Z,100528.97
2022-08-30T23:16:50.709Z,100534.50
2022-08-30T23:19:20.746Z,100540.06
2022-08-30T23:21:50.758Z,100547.00
2022-08-30T23:24:38.926Z,100545.13
2022-08-30T23:27:27.260Z,100551.28
2022-08-30T23:30:15.586Z,100548.38
2022-08-30T23:33:04.247Z,100550.38
2022-08-30T23:35:52.515Z,100549.91
2022-08-30T23:38:41.700Z,100550.53
2022-08-30T23:41:33.966Z,100541.38
2022-08-30T23:44:23.052Z,100551.44
2022-08-30T23:47:11.392Z,100550.94
2022-08-30T23:49:59.614Z,100548.63
2022-08-30T23:52:47.555Z,100546.47
2022-08-30T23:55:35.488Z,100545.16
2022-08-30T23:58:23.588Z,100537.22
